sensor_id;sensor_type;location;lat;lon;timestamp;P1;durP1;ratioP1;P2;durP2;ratioP2
14516;SDS011;7344;50.864;4.362;2023-04-26T00:01:21;14.17;;;5.50;;
14516;SDS011;7344;50.864;4.362;2023-04-26T00:03:47;10.03;;;5.03;;
14516;SDS011;7344;50.864;4.362;2023-04-26T00:06:13;9.80;;;5.53;;
14516;SDS011;7344;50.864;4.362;2023-04-26T00:08:40;10.70;;;5.70;;
14516;SDS011;7344;50.864;4.362;2023-04-26T00:11:07;10.20;;;5.50;;
14516;SDS011;7344;50.864;4.362;2023-04-26T00:13:32;11.27;;;5.50;;
14516;SDS011;7344;50.864;4.362;2023-04-26T00:15:58;11.93;;;5.07;;
14516;SDS011;7344;50.864;4.362;2023-04-26T00:18:24;11.93;;;5.60;;
14516;SDS011;7344;50.864;4.362;2023-04-26T00:20:49;12.27;;;5.53;;
14516;SDS011;7344;50.864;4.362;2023-04-26T00:23:15;12.13;;;5.33;;
14516;SDS011;7344;50.864;4.362;2023-04-26T00:25:42;11.90;;;5.00;;
14516;SDS011;7344;50.864;4.362;2023-04-26T00:28:08;13.27;;;5.60;;
14516;SDS011;7344;50.864;4.362;2023-04-26T00:30:34;10.53;;;5.47;;
14516;SDS011;7344;50.864;4.362;2023-04-26T00:33:01;11.53;;;5.30;;
14516;SDS011;7344;50.864;4.362;2023-04-26T00:35:27;10.30;;;5.30;;
14516;SDS011;7344;50.864;4.362;2023-04-26T00:37:53;11.67;;;5.93;;
14516;SDS011;7344;50.864;4.362;2023-04-26T00:40:18;9.13;;;5.30;;
14516;SDS011;7344;50.864;4.362;2023-04-26T00:42:44;15.57;;;6.53;;
14516;SDS011;7344;50.864;4.362;2023-04-26T00:45:10;12.07;;;5.90;;
14516;SDS011;7344;50.864;4.362;2023-04-26T00:47:35;11.27;;;5.47;;
14516;SDS011;7344;50.864;4.362;2023-04-26T00:50:02;11.67;;;5.83;;
14516;SDS011;7344;50.864;4.362;2023-04-26T00:52:28;7.80;;;5.17;;
14516;SDS011;7344;50.864;4.362;2023-04-26T00:54:55;11.63;;;6.13;;
14516;SDS011;7344;50.864;4.362;2023-04-26T00:57:21;14.43;;;6.00;;
14516;SDS011;7344;50.864;4.362;2023-04-26T00:59:47;14.30;;;6.20;;
14516;SDS011;7344;50.864;4.362;2023-04-26T01:02:13;11.70;;;5.50;;
14516;SDS011;7344;50.864;4.362;2023-04-26T01:04:40;12.30;;;5.43;;
14516;SDS011;7344;50.864;4.362;2023-04-26T01:07:06;11.20;;;6.23;;
14516;SDS011;7344;50.864;4.362;2023-04-26T01:09:32;12.13;;;5.93;;
14516;SDS011;7344;50.864;4.362;2023-04-26T01:11:58;11.80;;;6.13;;
14516;SDS011;7344;50.864;4.362;2023-04-26T01:14:25;11.07;;;5.97;;
14516;SDS011;7344;50.864;4.362;2023-04-26T01:16:51;12.80;;;6.50;;
14516;SDS011;7344;50.864;4.362;2023-04-26T01:19:17;18.13;;;7.10;;
14516;SDS011;7344;50.864;4.362;2023-04-26T01:21:42;9.93;;;6.60;;
14516;SDS011;7344;50.864;4.362;2023-04-26T01:24:09;12.37;;;6.53;;
14516;SDS011;7344;50.864;4.362;2023-04-26T01:26:36;17.83;;;6.90;;
14516;SDS011;7344;50.864;4.362;2023-04-26T01:29:20;12.97;;;6.10;;
14516;SDS011;7344;50.864;4.362;2023-04-26T01:31:48;18.47;;;7.30;;
14516;SDS011;7344;50.864;4.362;2023-04-26T01:34:14;14.17;;;6.63;;
14516;SDS011;7344;50.864;4.362;2023-04-26T01:36:39;16.37;;;7.10;;
14516;SDS011;7344;50.864;4.362;2023-04-26T01:39:05;12.20;;;6.50;;
14516;SDS011;7344;50.864;4.362;2023-04-26T01:41:32;13.70;;;6.80;;
14516;SDS011;7344;50.864;4.362;2023-04-26T01:43:58;15.30;;;7.10;;
14516;SDS011;7344;50.864;4.362;2023-04-26T01:46:24;13.57;;;6.87;;
14516;SDS011;7344;50.864;4.362;2023-04-26T01:48:50;11.23;;;6.57;;
14516;SDS011;7344;50.864;4.362;2023-04-26T01:51:16;14.97;;;6.97;;
14516;SDS011;7344;50.864;4.362;2023-04-26T01:53:41;14.30;;;7.20;;
14516;SDS011;7344;50.864;4.362;2023-04-26T01:56:07;13.97;;;7.33;;
14516;SDS011;7344;50.864;4.362;2023-04-26T01:58:33;15.37;;;6.93;;
14516;SDS011;7344;50.864;4.362;2023-04-26T02:01:05;11.43;;;6.40;;
14516;SDS011;7344;50.864;4.362;2023-04-26T02:03:32;18.17;;;7.03;;
14516;SDS011;7344;50.864;4.362;2023-04-26T02:05:58;11.67;;;6.67;;
14516;SDS011;7344;50.864;4.362;2023-04-26T02:08:24;14.63;;;6.87;;
14516;SDS011;7344;50.864;4.362;2023-04-26T02:10:49;12.60;;;6.87;;
14516;SDS011;7344;50.864;4.362;2023-04-26T02:13:15;15.60;;;7.67;;
14516;SDS011;7344;50.864;4.362;2023-04-26T02:15:44;18.07;;;8.83;;
14516;SDS011;7344;50.864;4.362;2023-04-26T02:18:11;21.60;;;7.90;;
14516;SDS011;7344;50.864;4.362;2023-04-26T02:20:39;18.20;;;8.53;;
14516;SDS011;7344;50.864;4.362;2023-04-26T02:23:08;29.20;;;8.30;;
14516;SDS011;7344;50.864;4.362;2023-04-26T02:25:34;19.70;;;7.60;;
14516;SDS011;7344;50.864;4.362;2023-04-26T02:28:01;17.83;;;7.73;;
14516;SDS011;7344;50.864;4.362;2023-04-26T02:30:27;20.13;;;7.10;;
14516;SDS011;7344;50.864;4.362;2023-04-26T02:32:53;14.37;;;7.50;;
14516;SDS011;7344;50.864;4.362;2023-04-26T02:35:19;15.33;;;7.77;;
14516;SDS011;7344;50.864;4.362;2023-04-26T02:37:45;14.47;;;7.53;;
14516;SDS011;7344;50.864;4.362;2023-04-26T02:40:14;14.47;;;7.33;;
14516;SDS011;7344;50.864;4.362;2023-04-26T02:42:40;11.80;;;7.50;;
14516;SDS011;7344;50.864;4.362;2023-04-26T02:45:06;14.63;;;7.10;;
14516;SDS011;7344;50.864;4.362;2023-04-26T02:47:32;17.47;;;7.57;;
14516;SDS011;7344;50.864;4.362;2023-04-26T02:50:00;14.90;;;7.67;;
14516;SDS011;7344;50.864;4.362;2023-04-26T02:52:26;15.20;;;7.50;;
14516;SDS011;7344;50.864;4.362;2023-04-26T02:54:52;13.63;;;7.13;;
14516;SDS011;7344;50.864;4.362;2023-04-26T02:57:17;14.87;;;7.40;;
14516;SDS011;7344;50.864;4.362;2023-04-26T02:59:43;13.13;;;7.60;;
14516;SDS011;7344;50.864;4.362;2023-04-26T03:02:09;13.53;;;7.67;;
14516;SDS011;7344;50.864;4.362;2023-04-26T03:04:34;13.27;;;7.00;;
14516;SDS011;7344;50.864;4.362;2023-04-26T03:07:03;14.83;;;7.20;;
14516;SDS011;7344;50.864;4.362;2023-04-26T03:09:29;21.27;;;7.90;;
14516;SDS011;7344;50.864;4.362;2023-04-26T03:11:55;20.67;;;7.90;;
14516;SDS011;7344;50.864;4.362;2023-04-26T03:14:21;12.97;;;7.40;;
14516;SDS011;7344;50.864;4.362;2023-04-26T03:16:46;15.27;;;7.40;;
14516;SDS011;7344;50.864;4.362;2023-04-26T03:19:12;17.77;;;7.20;;
14516;SDS011;7344;50.864;4.362;2023-04-26T03:21:38;18.63;;;7.63;;
14516;SDS011;7344;50.864;4.362;2023-04-26T03:24:04;14.60;;;7.40;;
14516;SDS011;7344;50.864;4.362;2023-04-26T03:26:30;14.20;;;7.43;;
14516;SDS011;7344;50.864;4.362;2023-04-26T03:28:56;15.23;;;7.90;;
14516;SDS011;7344;50.864;4.362;2023-04-26T03:31:22;13.60;;;7.50;;
14516;SDS011;7344;50.864;4.362;2023-04-26T03:33:48;12.87;;;7.10;;
14516;SDS011;7344;50.864;4.362;2023-04-26T03:36:13;15.60;;;7.77;;
14516;SDS011;7344;50.864;4.362;2023-04-26T03:38:39;17.00;;;7.33;;
14516;SDS011;7344;50.864;4.362;2023-04-26T03:41:06;18.33;;;7.67;;
14516;SDS011;7344;50.864;4.362;2023-04-26T03:43:32;16.40;;;8.37;;
14516;SDS011;7344;50.864;4.362;2023-04-26T03:45:58;14.97;;;7.87;;
14516;SDS011;7344;50.864;4.362;2023-04-26T03:48:24;17.93;;;8.23;;
14516;SDS011;7344;50.864;4.362;2023-04-26T03:50:51;17.00;;;8.30;;
14516;SDS011;7344;50.864;4.362;2023-04-26T03:53:17;16.17;;;8.17;;
14516;SDS011;7344;50.864;4.362;2023-04-26T03:55:42;15.67;;;7.77;;
14516;SDS011;7344;50.864;4.362;2023-04-26T03:58:08;13.93;;;7.13;;
14516;SDS011;7344;50.864;4.362;2023-04-26T04:00:35;17.30;;;8.93;;
14516;SDS011;7344;50.864;4.362;2023-04-26T04:03:02;15.40;;;7.73;;
14516;SDS011;7344;50.864;4.362;2023-04-26T04:05:29;12.93;;;7.43;;
14516;SDS011;7344;50.864;4.362;2023-04-26T04:07:54;15.10;;;7.70;;
14516;SDS011;7344;50.864;4.362;2023-04-26T04:10:21;17.20;;;8.53;;
14516;SDS011;7344;50.864;4.362;2023-04-26T04:12:47;15.10;;;8.30;;
14516;SDS011;7344;50.864;4.362;2023-04-26T04:15:13;19.17;;;7.97;;
14516;SDS011;7344;50.864;4.362;2023-04-26T04:17:40;15.07;;;8.57;;
14516;SDS011;7344;50.864;4.362;2023-04-26T04:20:06;15.23;;;8.57;;
14516;SDS011;7344;50.864;4.362;2023-04-26T04:22:32;17.47;;;8.10;;
14516;SDS011;7344;50.864;4.362;2023-04-26T04:24:58;15.63;;;8.20;;
14516;SDS011;7344;50.864;4.362;2023-04-26T04:27:24;18.17;;;8.37;;
14516;SDS011;7344;50.864;4.362;2023-04-26T04:29:50;17.13;;;8.20;;
14516;SDS011;7344;50.864;4.362;2023-04-26T04:32:18;16.33;;;7.70;;
14516;SDS011;7344;50.864;4.362;2023-04-26T04:34:43;15.30;;;8.27;;
14516;SDS011;7344;50.864;4.362;2023-04-26T04:37:09;12.90;;;8.27;;
14516;SDS011;7344;50.864;4.362;2023-04-26T04:39:35;20.33;;;9.40;;
14516;SDS011;7344;50.864;4.362;2023-04-26T04:42:01;20.70;;;9.10;;
14516;SDS011;7344;50.864;4.362;2023-04-26T04:44:27;19.60;;;7.50;;
14516;SDS011;7344;50.864;4.362;2023-04-26T04:46:53;20.17;;;8.60;;
14516;SDS011;7344;50.864;4.362;2023-04-26T04:49:18;16.50;;;7.83;;
14516;SDS011;7344;50.864;4.362;2023-04-26T04:51:44;15.90;;;7.73;;
14516;SDS011;7344;50.864;4.362;2023-04-26T04:56:39;24.80;;;8.90;;
14516;SDS011;7344;50.864;4.362;2023-04-26T04:59:05;23.77;;;8.07;;
14516;SDS011;7344;50.864;4.362;2023-04-26T05:01:32;18.23;;;7.57;;
14516;SDS011;7344;50.864;4.362;2023-04-26T05:03:58;22.00;;;8.17;;
14516;SDS011;7344;50.864;4.362;2023-04-26T05:06:24;21.43;;;8.37;;
14516;SDS011;7344;50.864;4.362;2023-04-26T05:08:53;19.67;;;8.63;;
14516;SDS011;7344;50.864;4.362;2023-04-26T05:11:20;20.80;;;8.27;;
14516;SDS011;7344;50.864;4.362;2023-04-26T05:13:45;20.77;;;8.00;;
14516;SDS011;7344;50.864;4.362;2023-04-26T05:16:12;22.63;;;8.40;;
14516;SDS011;7344;50.864;4.362;2023-04-26T05:18:38;22.53;;;8.67;;
14516;SDS011;7344;50.864;4.362;2023-04-26T05:21:03;25.67;;;9.00;;
14516;SDS011;7344;50.864;4.362;2023-04-26T05:23:29;20.13;;;8.33;;
14516;SDS011;7344;50.864;4.362;2023-04-26T05:25:55;25.60;;;8.40;;
14516;SDS011;7344;50.864;4.362;2023-04-26T05:28:21;17.17;;;7.97;;
14516;SDS011;7344;50.864;4.362;2023-04-26T05:30:47;19.07;;;7.43;;
14516;SDS011;7344;50.864;4.362;2023-04-26T05:33:13;20.90;;;8.17;;
14516;SDS011;7344;50.864;4.362;2023-04-26T05:35:40;23.80;;;8.60;;
14516;SDS011;7344;50.864;4.362;2023-04-26T05:38:05;20.63;;;8.70;;
14516;SDS011;7344;50.864;4.362;2023-04-26T05:40:31;24.63;;;8.37;;
14516;SDS011;7344;50.864;4.362;2023-04-26T05:42:56;22.93;;;8.57;;
14516;SDS011;7344;50.864;4.362;2023-04-26T05:45:22;26.33;;;9.30;;
14516;SDS011;7344;50.864;4.362;2023-04-26T05:47:48;33.73;;;11.00;;
14516;SDS011;7344;50.864;4.362;2023-04-26T05:50:15;21.33;;;8.97;;
14516;SDS011;7344;50.864;4.362;2023-04-26T05:52:40;32.77;;;9.17;;
14516;SDS011;7344;50.864;4.362;2023-04-26T05:55:06;26.20;;;9.17;;
14516;SDS011;7344;50.864;4.362;2023-04-26T05:57:32;20.37;;;8.40;;
14516;SDS011;7344;50.864;4.362;2023-04-26T05:59:58;14.23;;;8.40;;
14516;SDS011;7344;50.864;4.362;2023-04-26T06:02:24;24.47;;;9.60;;
14516;SDS011;7344;50.864;4.362;2023-04-26T06:04:50;22.07;;;9.43;;
14516;SDS011;7344;50.864;4.362;2023-04-26T06:07:16;23.10;;;8.80;;
14516;SDS011;7344;50.864;4.362;2023-04-26T06:09:41;21.97;;;8.90;;
14516;SDS011;7344;50.864;4.362;2023-04-26T06:12:07;20.47;;;8.53;;
14516;SDS011;7344;50.864;4.362;2023-04-26T06:14:32;21.40;;;8.90;;
14516;SDS011;7344;50.864;4.362;2023-04-26T06:16:58;28.93;;;9.67;;
14516;SDS011;7344;50.864;4.362;2023-04-26T06:19:24;26.20;;;9.67;;
14516;SDS011;7344;50.864;4.362;2023-04-26T06:21:50;20.33;;;9.30;;
14516;SDS011;7344;50.864;4.362;2023-04-26T06:24:19;18.73;;;9.23;;
14516;SDS011;7344;50.864;4.362;2023-04-26T06:26:45;23.43;;;9.83;;
14516;SDS011;7344;50.864;4.362;2023-04-26T06:29:11;21.37;;;9.40;;
14516;SDS011;7344;50.864;4.362;2023-04-26T06:31:36;25.43;;;9.60;;
14516;SDS011;7344;50.864;4.362;2023-04-26T06:34:02;27.00;;;10.07;;
14516;SDS011;7344;50.864;4.362;2023-04-26T06:36:28;25.33;;;9.50;;
14516;SDS011;7344;50.864;4.362;2023-04-26T06:38:54;19.50;;;8.90;;
14516;SDS011;7344;50.864;4.362;2023-04-26T06:41:20;19.70;;;9.03;;
14516;SDS011;7344;50.864;4.362;2023-04-26T06:43:46;18.30;;;8.43;;
14516;SDS011;7344;50.864;4.362;2023-04-26T06:46:12;15.87;;;8.77;;
14516;SDS011;7344;50.864;4.362;2023-04-26T06:48:38;20.37;;;9.73;;
14516;SDS011;7344;50.864;4.362;2023-04-26T06:51:07;20.80;;;8.87;;
14516;SDS011;7344;50.864;4.362;2023-04-26T06:53:33;19.30;;;8.80;;
14516;SDS011;7344;50.864;4.362;2023-04-26T06:56:00;11.70;;;6.40;;
14516;SDS011;7344;50.864;4.362;2023-04-26T06:58:26;11.30;;;5.80;;
14516;SDS011;7344;50.864;4.362;2023-04-26T07:01:13;13.00;;;5.47;;
14516;SDS011;7344;50.864;4.362;2023-04-26T07:03:37;9.67;;;4.70;;
14516;SDS011;7344;50.864;4.362;2023-04-26T07:06:06;13.83;;;4.73;;
14516;SDS011;7344;50.864;4.362;2023-04-26T07:08:31;9.10;;;4.40;;
14516;SDS011;7344;50.864;4.362;2023-04-26T07:10:57;9.43;;;4.13;;
14516;SDS011;7344;50.864;4.362;2023-04-26T07:13:23;11.97;;;4.77;;
14516;SDS011;7344;50.864;4.362;2023-04-26T07:15:48;8.13;;;4.47;;
14516;SDS011;7344;50.864;4.362;2023-04-26T07:18:15;7.77;;;4.43;;
14516;SDS011;7344;50.864;4.362;2023-04-26T07:20:40;9.73;;;4.50;;
14516;SDS011;7344;50.864;4.362;2023-04-26T07:23:09;7.77;;;4.23;;
14516;SDS011;7344;50.864;4.362;2023-04-26T07:25:34;8.77;;;4.00;;
14516;SDS011;7344;50.864;4.362;2023-04-26T07:28:00;40.43;;;15.63;;
14516;SDS011;7344;50.864;4.362;2023-04-26T07:30:25;24.07;;;8.37;;
14516;SDS011;7344;50.864;4.362;2023-04-26T07:32:51;10.67;;;6.63;;
14516;SDS011;7344;50.864;4.362;2023-04-26T07:35:17;6.60;;;3.60;;
14516;SDS011;7344;50.864;4.362;2023-04-26T07:37:42;14.03;;;4.47;;
14516;SDS011;7344;50.864;4.362;2023-04-26T07:40:09;5.10;;;3.93;;
14516;SDS011;7344;50.864;4.362;2023-04-26T07:42:35;9.47;;;3.77;;
14516;SDS011;7344;50.864;4.362;2023-04-26T07:45:04;7.50;;;3.80;;
14516;SDS011;7344;50.864;4.362;2023-04-26T07:47:30;8.97;;;3.73;;
14516;SDS011;7344;50.864;4.362;2023-04-26T07:49:56;7.47;;;3.40;;
14516;SDS011;7344;50.864;4.362;2023-04-26T07:52:21;9.00;;;3.47;;
14516;SDS011;7344;50.864;4.362;2023-04-26T07:54:52;6.30;;;3.80;;
14516;SDS011;7344;50.864;4.362;2023-04-26T07:57:18;6.53;;;3.90;;
14516;SDS011;7344;50.864;4.362;2023-04-26T07:59:44;9.57;;;4.70;;
14516;SDS011;7344;50.864;4.362;2023-04-26T08:02:09;4.83;;;3.53;;
14516;SDS011;7344;50.864;4.362;2023-04-26T08:04:35;10.73;;;5.03;;
14516;SDS011;7344;50.864;4.362;2023-04-26T08:07:01;6.43;;;3.93;;
14516;SDS011;7344;50.864;4.362;2023-04-26T08:09:27;9.23;;;3.67;;
14516;SDS011;7344;50.864;4.362;2023-04-26T08:11:54;7.30;;;4.20;;
14516;SDS011;7344;50.864;4.362;2023-04-26T08:14:20;8.67;;;3.70;;
14516;SDS011;7344;50.864;4.362;2023-04-26T08:16:46;8.87;;;4.77;;
14516;SDS011;7344;50.864;4.362;2023-04-26T08:19:11;13.43;;;8.03;;
14516;SDS011;7344;50.864;4.362;2023-04-26T08:21:37;11.07;;;5.93;;
14516;SDS011;7344;50.864;4.362;2023-04-26T08:24:02;10.10;;;5.13;;
14516;SDS011;7344;50.864;4.362;2023-04-26T08:26:28;9.90;;;4.53;;
14516;SDS011;7344;50.864;4.362;2023-04-26T08:28:54;9.57;;;4.27;;
14516;SDS011;7344;50.864;4.362;2023-04-26T08:31:21;7.80;;;4.73;;
14516;SDS011;7344;50.864;4.362;2023-04-26T08:33:47;9.10;;;4.87;;
14516;SDS011;7344;50.864;4.362;2023-04-26T08:36:37;8.93;;;4.67;;
14516;SDS011;7344;50.864;4.362;2023-04-26T08:39:03;9.95;;;5.15;;
14516;SDS011;7344;50.864;4.362;2023-04-26T08:41:30;12.93;;;5.00;;
14516;SDS011;7344;50.864;4.362;2023-04-26T08:44:06;11.10;;;5.25;;
14516;SDS011;7344;50.864;4.362;2023-04-26T08:46:43;7.70;;;5.03;;
14516;SDS011;7344;50.864;4.362;2023-04-26T08:51:54;6.15;;;4.18;;
14516;SDS011;7344;50.864;4.362;2023-04-26T08:54:21;5.60;;;3.70;;
14516;SDS011;7344;50.864;4.362;2023-04-26T08:56:49;6.95;;;4.00;;
14516;SDS011;7344;50.864;4.362;2023-04-26T08:59:16;8.73;;;4.18;;
14516;SDS011;7344;50.864;4.362;2023-04-26T09:01:42;7.32;;;4.50;;
14516;SDS011;7344;50.864;4.362;2023-04-26T09:04:08;6.35;;;3.95;;
14516;SDS011;7344;50.864;4.362;2023-04-26T09:06:34;8.70;;;5.68;;
14516;SDS011;7344;50.864;4.362;2023-04-26T09:09:01;6.50;;;4.70;;
14516;SDS011;7344;50.864;4.362;2023-04-26T09:11:49;6.20;;;4.60;;
14516;SDS011;7344;50.864;4.362;2023-04-26T09:14:25;11.15;;;5.53;;
14516;SDS011;7344;50.864;4.362;2023-04-26T09:16:51;9.18;;;5.70;;
14516;SDS011;7344;50.864;4.362;2023-04-26T09:19:39;8.77;;;6.00;;
14516;SDS011;7344;50.864;4.362;2023-04-26T09:22:06;6.88;;;6.05;;
14516;SDS011;7344;50.864;4.362;2023-04-26T09:24:54;10.02;;;6.22;;
14516;SDS011;7344;50.864;4.362;2023-04-26T09:27:19;9.25;;;6.40;;
14516;SDS011;7344;50.864;4.362;2023-04-26T09:29:59;7.88;;;5.07;;
14516;SDS011;7344;50.864;4.362;2023-04-26T09:35:30;9.10;;;5.30;;
14516;SDS011;7344;50.864;4.362;2023-04-26T09:38:02;9.73;;;4.93;;
14516;SDS011;7344;50.864;4.362;2023-04-26T09:40:36;8.57;;;5.25;;
14516;SDS011;7344;50.864;4.362;2023-04-26T09:43:13;10.80;;;5.20;;
14516;SDS011;7344;50.864;4.362;2023-04-26T09:45:46;9.23;;;6.30;;
14516;SDS011;7344;50.864;4.362;2023-04-26T09:50:46;11.27;;;6.45;;
14516;SDS011;7344;50.864;4.362;2023-04-26T09:53:39;11.15;;;5.97;;
14516;SDS011;7344;50.864;4.362;2023-04-26T09:56:13;9.30;;;5.68;;
14516;SDS011;7344;50.864;4.362;2023-04-26T10:01:12;8.75;;;5.38;;
14516;SDS011;7344;50.864;4.362;2023-04-26T10:03:40;9.02;;;4.65;;
14516;SDS011;7344;50.864;4.362;2023-04-26T10:06:06;8.53;;;4.53;;
14516;SDS011;7344;50.864;4.362;2023-04-26T10:08:32;7.20;;;4.80;;
14516;SDS011;7344;50.864;4.362;2023-04-26T10:10:59;7.00;;;4.47;;
14516;SDS011;7344;50.864;4.362;2023-04-26T10:13:30;5.60;;;5.03;;
14516;SDS011;7344;50.864;4.362;2023-04-26T10:15:56;9.50;;;5.63;;
14516;SDS011;7344;50.864;4.362;2023-04-26T10:18:24;4.78;;;4.13;;
14516;SDS011;7344;50.864;4.362;2023-04-26T10:20:51;8.60;;;4.13;;
14516;SDS011;7344;50.864;4.362;2023-04-26T10:23:21;7.85;;;4.10;;
14516;SDS011;7344;50.864;4.362;2023-04-26T10:25:51;6.72;;;4.05;;
14516;SDS011;7344;50.864;4.362;2023-04-26T10:28:23;4.32;;;3.67;;
14516;SDS011;7344;50.864;4.362;2023-04-26T10:31:10;7.63;;;4.15;;
14516;SDS011;7344;50.864;4.362;2023-04-26T10:33:36;5.87;;;3.80;;
14516;SDS011;7344;50.864;4.362;2023-04-26T10:38:31;7.00;;;3.95;;
14516;SDS011;7344;50.864;4.362;2023-04-26T10:43:57;8.23;;;4.20;;
14516;SDS011;7344;50.864;4.362;2023-04-26T10:46:44;7.15;;;4.00;;
14516;SDS011;7344;50.864;4.362;2023-04-26T10:49:17;7.10;;;4.27;;
14516;SDS011;7344;50.864;4.362;2023-04-26T10:52:07;9.50;;;4.45;;
14516;SDS011;7344;50.864;4.362;2023-04-26T10:54:50;6.90;;;4.10;;
14516;SDS011;7344;50.864;4.362;2023-04-26T10:57:17;6.72;;;4.10;;
14516;SDS011;7344;50.864;4.362;2023-04-26T11:05:35;5.95;;;4.63;;
14516;SDS011;7344;50.864;4.362;2023-04-26T11:08:03;6.53;;;3.95;;
14516;SDS011;7344;50.864;4.362;2023-04-26T11:10:29;8.55;;;4.57;;
14516;SDS011;7344;50.864;4.362;2023-04-26T11:12:58;6.75;;;3.80;;
14516;SDS011;7344;50.864;4.362;2023-04-26T11:15:25;3.63;;;3.27;;
14516;SDS011;7344;50.864;4.362;2023-04-26T11:17:51;7.20;;;4.07;;
14516;SDS011;7344;50.864;4.362;2023-04-26T11:20:16;4.80;;;3.60;;
14516;SDS011;7344;50.864;4.362;2023-04-26T11:22:42;5.33;;;3.50;;
14516;SDS011;7344;50.864;4.362;2023-04-26T11:25:07;6.20;;;3.75;;
14516;SDS011;7344;50.864;4.362;2023-04-26T11:27:33;5.05;;;4.00;;
14516;SDS011;7344;50.864;4.362;2023-04-26T11:30:01;7.40;;;3.92;;
14516;SDS011;7344;50.864;4.362;2023-04-26T11:32:28;6.50;;;3.67;;
14516;SDS011;7344;50.864;4.362;2023-04-26T11:34:54;5.95;;;3.80;;
14516;SDS011;7344;50.864;4.362;2023-04-26T11:37:24;8.07;;;3.60;;
14516;SDS011;7344;50.864;4.362;2023-04-26T11:39:50;6.00;;;4.60;;
14516;SDS011;7344;50.864;4.362;2023-04-26T11:42:15;5.70;;;4.68;;
14516;SDS011;7344;50.864;4.362;2023-04-26T11:44:41;8.52;;;3.47;;
14516;SDS011;7344;50.864;4.362;2023-04-26T11:47:07;4.60;;;3.90;;
14516;SDS011;7344;50.864;4.362;2023-04-26T11:49:36;5.60;;;3.63;;
14516;SDS011;7344;50.864;4.362;2023-04-26T11:52:03;4.78;;;3.80;;
14516;SDS011;7344;50.864;4.362;2023-04-26T11:54:30;6.85;;;4.13;;
14516;SDS011;7344;50.864;4.362;2023-04-26T11:56:57;6.72;;;3.67;;
14516;SDS011;7344;50.864;4.362;2023-04-26T11:59:23;6.18;;;3.83;;
14516;SDS011;7344;50.864;4.362;2023-04-26T12:01:49;6.28;;;4.68;;
14516;SDS011;7344;50.864;4.362;2023-04-26T12:04:18;10.55;;;4.72;;
14516;SDS011;7344;50.864;4.362;2023-04-26T12:06:50;6.55;;;4.03;;
14516;SDS011;7344;50.864;4.362;2023-04-26T12:09:16;5.97;;;4.32;;
14516;SDS011;7344;50.864;4.362;2023-04-26T12:12:04;10.32;;;4.45;;
14516;SDS011;7344;50.864;4.362;2023-04-26T12:14:34;7.95;;;4.30;;
14516;SDS011;7344;50.864;4.362;2023-04-26T12:17:04;8.02;;;4.30;;
14516;SDS011;7344;50.864;4.362;2023-04-26T12:19:37;8.07;;;4.70;;
14516;SDS011;7344;50.864;4.362;2023-04-26T12:22:04;6.50;;;4.13;;
14516;SDS011;7344;50.864;4.362;2023-04-26T12:24:37;6.27;;;4.80;;
14516;SDS011;7344;50.864;4.362;2023-04-26T12:27:03;8.20;;;5.03;;
14516;SDS011;7344;50.864;4.362;2023-04-26T12:29:31;5.60;;;4.50;;
14516;SDS011;7344;50.864;4.362;2023-04-26T12:32:00;5.20;;;4.47;;
14516;SDS011;7344;50.864;4.362;2023-04-26T12:34:26;7.77;;;4.97;;
14516;SDS011;7344;50.864;4.362;2023-04-26T12:36:51;6.73;;;4.80;;
14516;SDS011;7344;50.864;4.362;2023-04-26T12:39:18;9.20;;;4.73;;
14516;SDS011;7344;50.864;4.362;2023-04-26T12:41:44;8.60;;;4.60;;
14516;SDS011;7344;50.864;4.362;2023-04-26T12:44:10;9.47;;;4.50;;
14516;SDS011;7344;50.864;4.362;2023-04-26T12:46:36;6.23;;;4.87;;
14516;SDS011;7344;50.864;4.362;2023-04-26T12:49:02;6.90;;;4.37;;
14516;SDS011;7344;50.864;4.362;2023-04-26T12:51:28;6.15;;;4.43;;
14516;SDS011;7344;50.864;4.362;2023-04-26T12:53:54;7.20;;;4.82;;
14516;SDS011;7344;50.864;4.362;2023-04-26T12:56:19;8.05;;;4.60;;
14516;SDS011;7344;50.864;4.362;2023-04-26T12:58:45;7.97;;;4.95;;
14516;SDS011;7344;50.864;4.362;2023-04-26T13:01:12;8.95;;;5.45;;
14516;SDS011;7344;50.864;4.362;2023-04-26T13:03:38;5.13;;;4.20;;
14516;SDS011;7344;50.864;4.362;2023-04-26T13:06:04;6.20;;;4.13;;
14516;SDS011;7344;50.864;4.362;2023-04-26T13:08:29;7.97;;;5.53;;
14516;SDS011;7344;50.864;4.362;2023-04-26T13:10:55;10.43;;;6.57;;
14516;SDS011;7344;50.864;4.362;2023-04-26T13:13:21;10.87;;;6.10;;
14516;SDS011;7344;50.864;4.362;2023-04-26T13:15:46;7.37;;;5.03;;
14516;SDS011;7344;50.864;4.362;2023-04-26T13:18:12;8.37;;;5.03;;
14516;SDS011;7344;50.864;4.362;2023-04-26T13:20:39;9.57;;;5.13;;
14516;SDS011;7344;50.864;4.362;2023-04-26T13:23:05;7.90;;;5.30;;
14516;SDS011;7344;50.864;4.362;2023-04-26T13:25:31;8.53;;;5.57;;
14516;SDS011;7344;50.864;4.362;2023-04-26T13:27:56;7.23;;;5.63;;
14516;SDS011;7344;50.864;4.362;2023-04-26T13:30:22;6.43;;;5.30;;
14516;SDS011;7344;50.864;4.362;2023-04-26T13:32:48;6.75;;;5.72;;
14516;SDS011;7344;50.864;4.362;2023-04-26T13:35:13;11.77;;;6.00;;
14516;SDS011;7344;50.864;4.362;2023-04-26T13:37:39;7.80;;;5.53;;
14516;SDS011;7344;50.864;4.362;2023-04-26T13:40:05;9.33;;;5.60;;
14516;SDS011;7344;50.864;4.362;2023-04-26T13:42:32;7.90;;;5.77;;
14516;SDS011;7344;50.864;4.362;2023-04-26T13:44:57;8.07;;;5.20;;
14516;SDS011;7344;50.864;4.362;2023-04-26T13:47:25;9.50;;;6.20;;
14516;SDS011;7344;50.864;4.362;2023-04-26T13:49:51;7.70;;;5.57;;
14516;SDS011;7344;50.864;4.362;2023-04-26T13:52:18;7.20;;;5.70;;
14516;SDS011;7344;50.864;4.362;2023-04-26T13:54:43;10.17;;;6.13;;
14516;SDS011;7344;50.864;4.362;2023-04-26T13:57:09;8.20;;;5.43;;
14516;SDS011;7344;50.864;4.362;2023-04-26T13:59:35;11.50;;;5.83;;
14516;SDS011;7344;50.864;4.362;2023-04-26T14:02:01;9.80;;;5.23;;
14516;SDS011;7344;50.864;4.362;2023-04-26T14:04:27;10.07;;;6.20;;
14516;SDS011;7344;50.864;4.362;2023-04-26T14:06:53;11.23;;;5.70;;
14516;SDS011;7344;50.864;4.362;2023-04-26T14:09:19;10.30;;;5.57;;
14516;SDS011;7344;50.864;4.362;2023-04-26T14:11:45;8.43;;;5.37;;
14516;SDS011;7344;50.864;4.362;2023-04-26T14:14:10;12.83;;;6.40;;
14516;SDS011;7344;50.864;4.362;2023-04-26T14:16:36;9.13;;;5.80;;
14516;SDS011;7344;50.864;4.362;2023-04-26T14:19:01;8.30;;;4.77;;
14516;SDS011;7344;50.864;4.362;2023-04-26T14:21:27;9.67;;;5.57;;
14516;SDS011;7344;50.864;4.362;2023-04-26T14:23:53;9.87;;;7.03;;
14516;SDS011;7344;50.864;4.362;2023-04-26T14:26:23;14.90;;;6.23;;
14516;SDS011;7344;50.864;4.362;2023-04-26T14:28:50;8.20;;;5.83;;
14516;SDS011;7344;50.864;4.362;2023-04-26T14:31:16;8.67;;;5.87;;
14516;SDS011;7344;50.864;4.362;2023-04-26T14:33:42;7.97;;;6.43;;
14516;SDS011;7344;50.864;4.362;2023-04-26T14:36:07;8.60;;;5.87;;
14516;SDS011;7344;50.864;4.362;2023-04-26T14:38:33;13.97;;;6.07;;
14516;SDS011;7344;50.864;4.362;2023-04-26T14:40:59;11.87;;;6.00;;
14516;SDS011;7344;50.864;4.362;2023-04-26T14:43:24;8.80;;;6.23;;
14516;SDS011;7344;50.864;4.362;2023-04-26T14:45:51;7.93;;;5.97;;
14516;SDS011;7344;50.864;4.362;2023-04-26T14:48:20;9.17;;;6.20;;
14516;SDS011;7344;50.864;4.362;2023-04-26T14:50:45;9.17;;;5.90;;
14516;SDS011;7344;50.864;4.362;2023-04-26T14:53:11;10.73;;;6.37;;
14516;SDS011;7344;50.864;4.362;2023-04-26T14:55:43;12.17;;;6.00;;
14516;SDS011;7344;50.864;4.362;2023-04-26T14:58:08;12.37;;;6.30;;
14516;SDS011;7344;50.864;4.362;2023-04-26T15:00:54;9.60;;;6.57;;
14516;SDS011;7344;50.864;4.362;2023-04-26T15:03:20;9.33;;;6.07;;
14516;SDS011;7344;50.864;4.362;2023-04-26T15:05:46;7.60;;;5.53;;
14516;SDS011;7344;50.864;4.362;2023-04-26T15:08:11;8.37;;;5.37;;
14516;SDS011;7344;50.864;4.362;2023-04-26T15:10:37;9.10;;;6.10;;
14516;SDS011;7344;50.864;4.362;2023-04-26T15:13:02;8.23;;;5.63;;
14516;SDS011;7344;50.864;4.362;2023-04-26T15:15:28;9.97;;;5.73;;
14516;SDS011;7344;50.864;4.362;2023-04-26T15:17:54;7.93;;;5.70;;